Terminal Aerodrome Forecast
Issued by NWS Mt. Holly, NJ

Home | Current Version | Previous Version | Text Only | Print | Product List | Glossary On
Versions: 1 2 3 4 5 6 7 8 9 10 11 12 13 14 15 16 17 18 19 20 21
000
FTAK31 PANC 280540
TAFABE
TAF
PABE 280540Z 2806/2906 35010KT P6SM SCT025 SCT200
     FM281400 33005KT 2SM BR VCFG BKN002
     FM282000 34010KT P6SM SCT005 BKN015
     FM282300 34012KT P6SM FEW015 SCT025 BKN200=

USA.gov is the U.S. government's official web portal to all federal, state and local government web resources and services.